Time;durP1;ratioP1;P1;durP2;ratioP2;P2;SDS_P1;SDS_P2;PMS_P1;PMS_P2;Temp;Humidity;BMP_temperature;BMP_pressure;BME280_temperature;BME280_humidity;BME280_pressure;Samples;Min_cycle;Max_cycle;Signal;HPM_P1;HPM_P2
2023/10/10 00:02:20;;;;;;;28.05;10.20;;;;;;;;;;5030615;28;20405;-71
2023/10/10 00:04:47;;;;;;;31.23;10.63;;;;;;;;;;5028341;28;20773;-72
2023/10/10 00:07:15;;;;;;;28.90;10.80;;;;;;;;;;5031726;28;20927;-72
2023/10/10 00:09:44;;;;;;;31.10;11.07;;;;;;;;;;5046325;28;20422;-71
2023/10/10 00:12:13;;;;;;;27.60;9.70;;;;;;;;;;5031433;28;20486;-73
2023/10/10 00:14:39;;;;;;;28.98;9.73;;;;;;;;;;5047048;28;20438;-74
2023/10/10 00:17:09;;;;;;;28.17;9.75;;;;;;;;;;5018561;28;20435;-73
2023/10/10 00:19:45;;;;;;;33.20;10.32;;;;;;;;;;5031753;28;20418;-71
2023/10/10 00:22:12;;;;;;;28.10;9.93;;;;;;;;;;5037797;28;20407;-72
2023/10/10 00:24:40;;;;;;;29.65;11.27;;;;;;;;;;5030391;28;20431;-72
2023/10/10 00:27:12;;;;;;;33.58;10.55;;;;;;;;;;5030004;28;20413;-75
2023/10/10 00:29:42;;;;;;;27.25;10.77;;;;;;;;;;5029105;28;20490;-74
2023/10/10 00:32:16;;;;;;;30.08;9.80;;;;;;;;;;5018091;28;20451;-71
2023/10/10 00:34:47;;;;;;;30.58;9.90;;;;;;;;;;5018412;28;20516;-71
2023/10/10 00:37:14;;;;;;;29.08;10.25;;;;;;;;;;5028993;28;20823;-71
2023/10/10 00:39:52;;;;;;;27.27;10.25;;;;;;;;;;5031554;28;20887;-72
2023/10/10 00:42:36;;;;;;;30.67;9.45;;;;;;;;;;5030360;28;20415;-73
2023/10/10 00:45:04;;;;;;;28.10;9.23;;;;;;;;;;5029772;28;20399;-72
2023/10/10 00:47:38;;;;;;;33.30;10.43;;;;;;;;;;5030549;28;20406;-74
2023/10/10 00:50:08;;;;;;;33.97;11.00;;;;;;;;;;5029770;28;20411;-74
2023/10/10 00:52:38;;;;;;;27.27;9.75;;;;;;;;;;5031033;28;20405;-72
2023/10/10 00:55:06;;;;;;;28.95;10.50;;;;;;;;;;5027282;28;20417;-76
2023/10/10 00:57:35;;;;;;;30.83;10.57;;;;;;;;;;5029835;28;20422;-75
2023/10/10 01:00:07;;;;;;;27.70;9.48;;;;;;;;;;5039921;28;20426;-75
2023/10/10 01:02:36;;;;;;;27.67;9.45;;;;;;;;;;5031618;28;20403;-73
2023/10/10 01:05:13;;;;;;;30.30;9.43;;;;;;;;;;5031374;28;20503;-74
2023/10/10 01:07:43;;;;;;;26.08;8.77;;;;;;;;;;5029322;28;20991;-74
2023/10/10 01:10:12;;;;;;;29.38;9.90;;;;;;;;;;5029196;28;20457;-76
2023/10/10 01:12:39;;;;;;;29.00;9.47;;;;;;;;;;5029467;28;20411;-72
2023/10/10 01:15:14;;;;;;;32.20;9.95;;;;;;;;;;5019170;28;20503;-75
2023/10/10 01:17:45;;;;;;;29.25;9.75;;;;;;;;;;5030347;28;20422;-74
2023/10/10 01:20:19;;;;;;;30.40;10.23;;;;;;;;;;5029886;28;20421;-75
2023/10/10 01:22:51;;;;;;;29.25;10.13;;;;;;;;;;5027923;28;20413;-74
2023/10/10 01:27:58;;;;;;;27.15;9.52;;;;;;;;;;5030355;28;20403;-73
2023/10/10 01:30:58;;;;;;;28.60;10.63;;;;;;;;;;5027355;28;20514;-74
2023/10/10 01:33:22;;;;;;;33.42;10.85;;;;;;;;;;5023850;28;20413;-73
2023/10/10 01:35:58;;;;;;;27.50;9.55;;;;;;;;;;5011769;28;20418;-76
2023/10/10 01:38:38;;;;;;;27.40;9.88;;;;;;;;;;5029550;28;20505;-75
2023/10/10 01:41:22;;;;;;;27.70;9.70;;;;;;;;;;5013206;28;20411;-76
2023/10/10 01:43:53;;;;;;;27.23;9.45;;;;;;;;;;5017498;28;20411;-74
2023/10/10 01:46:27;;;;;;;30.95;10.73;;;;;;;;;;5016628;28;20489;-74
2023/10/10 01:48:54;;;;;;;27.05;9.40;;;;;;;;;;5049616;28;20926;-72
2023/10/10 01:51:24;;;;;;;26.85;10.48;;;;;;;;;;5033113;28;20425;-74
2023/10/10 01:53:55;;;;;;;31.58;9.60;;;;;;;;;;5035878;28;20450;-75
2023/10/10 01:56:22;;;;;;;27.98;9.15;;;;;;;;;;5037568;28;20473;-75
2023/10/10 01:58:53;;;;;;;28.20;8.30;;;;;;;;;;5030329;28;20429;-75
2023/10/10 02:01:20;;;;;;;26.58;9.35;;;;;;;;;;5032026;28;20414;-75
2023/10/10 02:03:47;;;;;;;26.40;9.13;;;;;;;;;;5034698;28;20738;-75
2023/10/10 02:06:28;;;;;;;29.23;9.30;;;;;;;;;;5032820;28;20422;-75
2023/10/10 02:09:02;;;;;;;28.05;10.70;;;;;;;;;;5016269;28;20420;-74
2023/10/10 02:11:31;;;;;;;27.77;9.88;;;;;;;;;;5034351;28;20403;-75
2023/10/10 02:14:02;;;;;;;28.20;9.57;;;;;;;;;;5030013;28;20955;-73
2023/10/10 02:16:35;;;;;;;28.33;9.50;;;;;;;;;;5032734;28;20411;-75
2023/10/10 02:19:15;;;;;;;29.70;9.83;;;;;;;;;;5032615;28;20411;-75
2023/10/10 02:21:45;;;;;;;26.40;9.07;;;;;;;;;;5029070;28;20426;-74
2023/10/10 02:24:38;;;;;;;29.05;9.20;;;;;;;;;;5004057;28;20417;-75
2023/10/10 02:27:04;;;;;;;29.17;9.60;;;;;;;;;;5032904;28;20403;-74
2023/10/10 02:32:12;;;;;;;25.00;8.75;;;;;;;;;;5031059;28;20810;-73
2023/10/10 02:34:43;;;;;;;26.02;9.30;;;;;;;;;;5013359;28;20961;-74
2023/10/10 02:37:22;;;;;;;28.80;9.88;;;;;;;;;;5029187;28;20428;-73
2023/10/10 02:40:06;;;;;;;28.45;9.10;;;;;;;;;;5030998;28;20435;-74
2023/10/10 02:42:36;;;;;;;28.48;9.40;;;;;;;;;;5032327;28;20409;-74
2023/10/10 02:45:02;;;;;;;25.15;9.18;;;;;;;;;;5037131;28;21002;-76
2023/10/10 02:47:30;;;;;;;26.35;9.05;;;;;;;;;;5037796;28;20411;-75
2023/10/10 02:50:38;;;;;;;25.00;9.07;;;;;;;;;;5032165;28;20450;-76
2023/10/10 02:53:06;;;;;;;30.70;9.13;;;;;;;;;;5033306;28;20949;-76
2023/10/10 02:55:35;;;;;;;29.50;9.35;;;;;;;;;;5031619;28;20491;-75
2023/10/10 02:58:02;;;;;;;26.40;9.57;;;;;;;;;;5002374;28;20933;-74
2023/10/10 03:00:29;;;;;;;27.20;8.82;;;;;;;;;;5031753;28;20908;-74
2023/10/10 03:02:59;;;;;;;24.35;9.73;;;;;;;;;;5031557;28;21189;-75
2023/10/10 03:05:50;;;;;;;27.60;8.70;;;;;;;;;;5035093;28;20407;-74
2023/10/10 03:08:51;;;;;;;25.58;8.15;;;;;;;;;;5046769;28;20407;-77
2023/10/10 03:11:39;;;;;;;25.58;8.40;;;;;;;;;;5025025;28;20419;-73
2023/10/10 03:14:16;;;;;;;29.35;8.18;;;;;;;;;;5047076;28;20407;-76
2023/10/10 03:16:59;;;;;;;25.75;8.10;;;;;;;;;;5029109;28;20407;-75
2023/10/10 03:19:28;;;;;;;24.88;8.73;;;;;;;;;;5030959;28;20419;-74
2023/10/10 03:25:07;;;;;;;24.30;7.70;;;;;;;;;;5030932;28;20807;-74
2023/10/10 03:30:18;;;;;;;25.60;8.20;;;;;;;;;;5027847;28;20995;-74
2023/10/10 03:35:52;;;;;;;23.35;6.78;;;;;;;;;;5029163;28;20402;-76
2023/10/10 05:23:47;;;;;;;24.17;7.57;;;;;;;;;;5033516;28;20402;-75
2023/10/10 05:26:14;;;;;;;23.98;7.80;;;;;;;;;;5035884;28;20494;-75
2023/10/10 05:28:42;;;;;;;26.35;7.40;;;;;;;;;;5034009;28;21169;-74
2023/10/10 05:31:09;;;;;;;25.23;7.70;;;;;;;;;;5035202;28;20966;-75
2023/10/10 05:33:36;;;;;;;24.50;7.60;;;;;;;;;;5002320;28;20821;-74
2023/10/10 05:36:06;;;;;;;24.98;7.10;;;;;;;;;;5033385;28;20415;-75
2023/10/10 05:38:35;;;;;;;23.75;7.45;;;;;;;;;;5030376;28;20420;-74
2023/10/10 05:41:06;;;;;;;25.77;7.00;;;;;;;;;;5030325;28;20426;-76
2023/10/10 05:43:33;;;;;;;25.20;8.10;;;;;;;;;;5047213;28;20421;-76
2023/10/10 05:46:01;;;;;;;23.48;7.00;;;;;;;;;;5034716;28;20772;-75
2023/10/10 05:48:27;;;;;;;24.77;7.65;;;;;;;;;;5032231;28;20420;-73
2023/10/10 05:50:54;;;;;;;20.60;6.30;;;;;;;;;;5021187;28;20416;-75
2023/10/10 05:53:21;;;;;;;24.58;7.30;;;;;;;;;;5049504;28;20411;-76
2023/10/10 05:55:51;;;;;;;29.05;7.85;;;;;;;;;;5032324;28;20475;-74
2023/10/10 05:58:20;;;;;;;26.23;6.95;;;;;;;;;;5018377;28;20502;-73
2023/10/10 06:00:48;;;;;;;30.15;8.30;;;;;;;;;;5033459;28;20502;-74
2023/10/10 06:03:17;;;;;;;25.25;7.28;;;;;;;;;;5033874;28;20493;-75
2023/10/10 06:05:49;;;;;;;24.83;7.07;;;;;;;;;;5034317;28;20406;-75
2023/10/10 06:08:16;;;;;;;25.05;7.63;;;;;;;;;;5033469;28;20415;-75
2023/10/10 06:10:43;;;;;;;27.10;7.50;;;;;;;;;;5031258;28;20412;-75
2023/10/10 06:13:11;;;;;;;22.95;7.30;;;;;;;;;;5034088;28;20415;-75
2023/10/10 06:15:39;;;;;;;27.35;7.90;;;;;;;;;;5031190;28;20430;-76
2023/10/10 06:18:11;;;;;;;24.00;6.80;;;;;;;;;;5015676;28;20423;-74
2023/10/10 06:20:41;;;;;;;23.10;6.80;;;;;;;;;;5032271;28;20423;-74
2023/10/10 06:23:27;;;;;;;25.70;7.47;;;;;;;;;;5031914;28;20902;-76
2023/10/10 06:25:58;;;;;;;23.40;6.30;;;;;;;;;;5032308;28;20407;-76
2023/10/10 06:28:29;;;;;;;28.45;7.25;;;;;;;;;;5041358;28;20407;-74
2023/10/10 06:30:59;;;;;;;24.75;6.00;;;;;;;;;;5032779;28;20494;-75
2023/10/10 06:33:29;;;;;;;24.85;7.20;;;;;;;;;;5032982;28;20427;-74
2023/10/10 06:36:25;;;;;;;23.87;6.93;;;;;;;;;;5035075;28;20538;-74
2023/10/10 06:38:59;;;;;;;21.02;6.10;;;;;;;;;;5030247;28;20517;-76
2023/10/10 06:41:27;;;;;;;25.85;6.68;;;;;;;;;;5032249;28;20418;-76
2023/10/10 06:43:54;;;;;;;21.73;6.28;;;;;;;;;;5033654;28;20464;-74
2023/10/10 06:46:23;;;;;;;24.35;6.57;;;;;;;;;;5040259;28;20514;-76
2023/10/10 06:48:50;;;;;;;22.95;6.50;;;;;;;;;;5033260;28;20799;-74
2023/10/10 06:51:22;;;;;;;26.77;6.60;;;;;;;;;;5048325;28;20415;-75
2023/10/10 06:53:54;;;;;;;23.25;6.55;;;;;;;;;;5031557;28;20411;-75
2023/10/10 06:56:43;;;;;;;23.52;6.30;;;;;;;;;;5032458;28;20417;-75
2023/10/10 06:59:20;;;;;;;22.05;6.50;;;;;;;;;;5033498;28;20422;-74
2023/10/10 07:01:49;;;;;;;23.60;6.25;;;;;;;;;;5034892;28;20419;-74
2023/10/10 07:04:16;;;;;;;22.80;6.25;;;;;;;;;;5033403;28;20413;-76
2023/10/10 07:06:44;;;;;;;26.33;6.35;;;;;;;;;;5031539;28;20417;-75
2023/10/10 07:09:14;;;;;;;23.65;6.00;;;;;;;;;;5031904;28;20407;-74
2023/10/10 07:11:42;;;;;;;23.05;6.13;;;;;;;;;;5030955;28;20502;-75
2023/10/10 07:14:10;;;;;;;26.05;6.10;;;;;;;;;;5032929;28;20411;-74
2023/10/10 07:16:44;;;;;;;24.35;5.90;;;;;;;;;;5033706;28;20428;-77
2023/10/10 07:19:30;;;;;;;24.33;5.85;;;;;;;;;;5030116;28;21113;-73
2023/10/10 07:21:59;;;;;;;23.98;6.78;;;;;;;;;;5032157;28;20405;-75
2023/10/10 07:24:29;;;;;;;21.63;5.93;;;;;;;;;;5034615;28;20511;-77
2023/10/10 07:27:04;;;;;;;25.73;6.28;;;;;;;;;;5031484;28;20419;-73
2023/10/10 07:29:57;;;;;;;22.60;5.30;;;;;;;;;;5020394;28;20433;-75
2023/10/10 07:32:17;;;;;;;23.02;5.72;;;;;;;;;;5038765;28;20411;-75
2023/10/10 07:34:52;;;;;;;23.20;6.00;;;;;;;;;;5032673;28;20501;-74
2023/10/10 07:37:19;;;;;;;22.67;5.90;;;;;;;;;;5029321;28;20429;-74
2023/10/10 07:42:27;;;;;;;23.15;5.60;;;;;;;;;;5031007;28;20892;-74
2023/10/10 07:44:54;;;;;;;23.70;5.20;;;;;;;;;;5032492;28;20411;-76
2023/10/10 07:47:25;;;;;;;25.25;5.80;;;;;;;;;;5032165;28;20760;-75
2023/10/10 07:49:55;;;;;;;22.95;5.35;;;;;;;;;;5028391;28;20411;-75
2023/10/10 07:52:22;;;;;;;24.90;5.75;;;;;;;;;;5023136;28;20493;-74
2023/10/10 07:54:53;;;;;;;29.00;6.33;;;;;;;;;;5026840;28;20815;-75
2023/10/10 07:57:26;;;;;;;21.23;4.90;;;;;;;;;;5029264;28;20514;-74
2023/10/10 07:59:56;;;;;;;24.42;6.13;;;;;;;;;;5029172;28;20887;-75
2023/10/10 08:05:01;;;;;;;23.55;6.85;;;;;;;;;;5030432;28;20411;-76
2023/10/10 08:07:27;;;;;;;25.02;6.82;;;;;;;;;;5027455;28;20417;-75
2023/10/10 08:12:40;;;;;;;24.17;5.60;;;;;;;;;;5030332;28;20403;-76
2023/10/10 08:15:19;;;;;;;21.00;5.97;;;;;;;;;;5035348;28;20408;-75
2023/10/10 08:17:52;;;;;;;23.02;5.50;;;;;;;;;;5032222;28;20742;-74
2023/10/10 08:23:06;;;;;;;21.30;5.67;;;;;;;;;;5032705;28;20899;-76
2023/10/10 08:25:33;;;;;;;22.45;6.05;;;;;;;;;;5032814;28;20434;-74
2023/10/10 08:28:00;;;;;;;21.15;6.35;;;;;;;;;;5031911;28;20443;-73
2023/10/10 08:30:27;;;;;;;23.63;6.07;;;;;;;;;;5029222;28;20408;-76
2023/10/10 08:32:54;;;;;;;20.70;5.18;;;;;;;;;;5041201;28;20926;-75
2023/10/10 08:35:29;;;;;;;24.13;5.30;;;;;;;;;;5031284;28;20406;-75
2023/10/10 08:37:57;;;;;;;22.70;6.00;;;;;;;;;;5031952;28;20457;-72
2023/10/10 08:40:30;;;;;;;21.85;5.97;;;;;;;;;;5030686;28;20990;-75
2023/10/10 08:42:57;;;;;;;23.23;5.70;;;;;;;;;;5032946;28;20486;-74
2023/10/10 08:45:24;;;;;;;21.70;5.90;;;;;;;;;;5032586;28;20410;-77
2023/10/10 08:48:01;;;;;;;26.98;5.85;;;;;;;;;;5028616;28;20475;-75
2023/10/10 08:50:32;;;;;;;21.75;5.10;;;;;;;;;;5029883;28;20811;-75
2023/10/10 08:52:59;;;;;;;21.90;5.25;;;;;;;;;;5030213;28;20407;-76
2023/10/10 08:55:26;;;;;;;20.70;4.82;;;;;;;;;;5028659;28;20407;-75
2023/10/10 08:57:55;;;;;;;24.43;5.40;;;;;;;;;;5031674;28;20506;-76
2023/10/10 09:00:22;;;;;;;20.52;5.28;;;;;;;;;;5031557;28;20433;-75
2023/10/10 09:02:51;;;;;;;20.90;5.03;;;;;;;;;;5031591;28;20411;-75
2023/10/10 09:05:19;;;;;;;23.57;5.70;;;;;;;;;;5031043;28;20477;-75
2023/10/10 09:07:47;;;;;;;21.58;5.88;;;;;;;;;;5030573;28;20502;-76
2023/10/10 09:10:14;;;;;;;22.08;5.50;;;;;;;;;;5030674;28;20486;-73
2023/10/10 09:12:53;;;;;;;21.48;5.30;;;;;;;;;;5031895;28;20418;-74
2023/10/10 09:15:20;;;;;;;24.80;6.10;;;;;;;;;;5028204;28;20411;-76
2023/10/10 09:17:47;;;;;;;18.67;4.80;;;;;;;;;;5031537;28;20406;-74
2023/10/10 09:20:28;;;;;;;19.20;4.80;;;;;;;;;;5029605;28;20776;-76
2023/10/10 09:23:11;;;;;;;22.30;4.90;;;;;;;;;;5030066;28;20403;-75
2023/10/10 09:25:42;;;;;;;23.80;4.70;;;;;;;;;;5014117;28;20410;-75
2023/10/10 09:28:15;;;;;;;21.40;4.70;;;;;;;;;;5043136;28;20411;-75
2023/10/10 09:30:45;;;;;;;20.10;4.22;;;;;;;;;;5029654;28;20544;-75
2023/10/10 09:33:23;;;;;;;20.42;5.03;;;;;;;;;;5043112;28;20453;-76
2023/10/10 09:35:53;;;;;;;20.40;4.90;;;;;;;;;;5031647;28;20869;-75
2023/10/10 09:38:26;;;;;;;18.60;4.95;;;;;;;;;;5029903;28;20419;-74
2023/10/10 09:41:10;;;;;;;21.42;5.10;;;;;;;;;;5033634;28;20434;-74
2023/10/10 09:43:49;;;;;;;23.75;5.63;;;;;;;;;;5029029;28;20415;-75
2023/10/10 09:46:23;;;;;;;20.30;4.47;;;;;;;;;;5031556;28;20753;-76
2023/10/10 09:54:16;;;;;;;20.58;4.60;;;;;;;;;;5045292;28;20401;-76
2023/10/10 09:56:45;;;;;;;19.25;4.15;;;;;;;;;;5037075;28;20907;-76
2023/10/10 09:59:14;;;;;;;19.50;4.72;;;;;;;;;;5040777;28;20450;-76
2023/10/10 10:01:45;;;;;;;20.38;4.78;;;;;;;;;;5037993;28;20421;-76
2023/10/10 10:04:18;;;;;;;24.65;5.00;;;;;;;;;;5035927;28;20498;-76
2023/10/10 10:06:51;;;;;;;20.42;4.35;;;;;;;;;;5020164;28;20419;-78
2023/10/10 10:09:46;;;;;;;19.13;3.83;;;;;;;;;;5041046;28;20429;-78
2023/10/10 10:12:30;;;;;;;19.75;4.13;;;;;;;;;;5040260;28;20406;-76
2023/10/10 10:15:06;;;;;;;21.88;4.93;;;;;;;;;;5028490;28;20406;-77
2023/10/10 10:17:53;;;;;;;26.23;4.60;;;;;;;;;;5028421;28;20403;-78
2023/10/10 10:20:33;;;;;;;21.42;4.45;;;;;;;;;;5031615;28;20423;-77
2023/10/10 10:23:00;;;;;;;20.53;4.60;;;;;;;;;;5036642;28;20462;-75
2023/10/10 10:25:32;;;;;;;19.08;4.70;;;;;;;;;;5042385;28;20419;-74
2023/10/10 10:28:11;;;;;;;20.00;4.10;;;;;;;;;;5046601;28;20407;-76
2023/10/10 10:30:50;;;;;;;20.10;4.67;;;;;;;;;;5048485;28;20425;-78
2023/10/10 10:33:20;;;;;;;25.40;4.40;;;;;;;;;;5042462;28;20395;-78
2023/10/10 10:36:14;;;;;;;21.65;4.13;;;;;;;;;;5046571;28;21083;-78
2023/10/10 10:39:18;;;;;;;21.30;4.40;;;;;;;;;;5037654;28;20398;-76
2023/10/10 10:41:42;;;;;;;19.80;4.53;;;;;;;;;;5031273;28;20457;-74
2023/10/10 10:44:12;;;;;;;19.20;4.30;;;;;;;;;;5014771;28;20407;-74
2023/10/10 10:46:40;;;;;;;21.08;4.10;;;;;;;;;;5033789;28;20403;-74
2023/10/10 10:49:12;;;;;;;20.20;3.50;;;;;;;;;;5031361;28;20419;-75
2023/10/10 10:51:41;;;;;;;19.35;3.70;;;;;;;;;;5034252;28;20418;-74
2023/10/10 10:54:10;;;;;;;18.67;3.90;;;;;;;;;;5032389;28;20460;-74
2023/10/10 10:56:38;;;;;;;19.05;3.83;;;;;;;;;;5032326;28;20427;-74
2023/10/10 10:59:21;;;;;;;19.88;4.13;;;;;;;;;;5036827;28;20444;-74
2023/10/10 11:01:55;;;;;;;19.52;4.07;;;;;;;;;;5032251;28;21759;-71
2023/10/10 11:07:02;;;;;;;18.35;3.80;;;;;;;;;;5032075;28;20509;-74
2023/10/10 11:09:28;;;;;;;20.38;4.70;;;;;;;;;;5034512;28;20811;-75
2023/10/10 11:12:02;;;;;;;17.80;3.77;;;;;;;;;;5034294;28;20522;-75
2023/10/10 11:14:31;;;;;;;19.95;3.92;;;;;;;;;;5031819;28;20820;-75
2023/10/10 11:16:58;;;;;;;20.52;3.72;;;;;;;;;;5025001;28;20415;-75
2023/10/10 11:21:56;;;;;;;16.90;3.00;;;;;;;;;;5033097;28;20461;-74
2023/10/10 11:24:24;;;;;;;18.23;3.95;;;;;;;;;;5031794;28;20419;-73
2023/10/10 11:27:07;;;;;;;21.60;4.28;;;;;;;;;;5033432;28;20411;-73
2023/10/10 11:29:41;;;;;;;20.30;4.00;;;;;;;;;;5031865;28;20426;-75
2023/10/10 11:32:11;;;;;;;18.90;3.90;;;;;;;;;;5014989;28;20498;-72
2023/10/10 11:34:44;;;;;;;18.50;3.78;;;;;;;;;;5033042;28;20406;-75
2023/10/10 11:37:13;;;;;;;20.70;3.88;;;;;;;;;;5027439;28;20826;-73
2023/10/10 11:39:57;;;;;;;18.73;4.25;;;;;;;;;;5030744;28;20975;-74
2023/10/10 11:42:27;;;;;;;17.25;3.28;;;;;;;;;;5015316;28;20420;-73
2023/10/10 11:45:01;;;;;;;18.02;3.50;;;;;;;;;;5034984;28;20421;-75
2023/10/10 11:47:28;;;;;;;18.10;3.63;;;;;;;;;;5046756;28;20864;-72
2023/10/10 11:50:00;;;;;;;19.40;4.05;;;;;;;;;;5033281;28;20399;-75
2023/10/10 11:52:28;;;;;;;19.70;3.60;;;;;;;;;;5031086;28;20435;-75
2023/10/10 11:54:55;;;;;;;17.63;3.42;;;;;;;;;;5032102;28;20434;-73
2023/10/10 11:57:23;;;;;;;19.38;3.80;;;;;;;;;;5031348;28;20419;-74
2023/10/10 11:59:50;;;;;;;17.83;3.80;;;;;;;;;;5038071;28;20415;-74
2023/10/10 12:02:18;;;;;;;18.02;3.30;;;;;;;;;;5032103;28;20443;-74
2023/10/10 12:04:45;;;;;;;20.75;3.50;;;;;;;;;;5034766;28;20439;-74
2023/10/10 12:07:14;;;;;;;18.45;3.40;;;;;;;;;;5038963;28;20532;-75
2023/10/10 12:09:45;;;;;;;21.00;4.17;;;;;;;;;;5028253;28;20427;-75
2023/10/10 12:12:13;;;;;;;21.23;3.50;;;;;;;;;;5031922;28;20422;-75
2023/10/10 12:14:42;;;;;;;18.45;3.65;;;;;;;;;;5017502;28;20507;-74
2023/10/10 12:17:09;;;;;;;20.38;3.80;;;;;;;;;;5032747;28;20437;-74
2023/10/10 12:19:37;;;;;;;19.50;4.15;;;;;;;;;;5028183;28;20498;-77
2023/10/10 12:22:15;;;;;;;22.98;4.00;;;;;;;;;;5032736;28;20410;-77
2023/10/10 12:24:42;;;;;;;18.50;3.30;;;;;;;;;;5045435;28;20979;-74
2023/10/10 12:27:12;;;;;;;16.83;3.22;;;;;;;;;;5030655;28;21032;-76
2023/10/10 12:29:41;;;;;;;17.95;3.85;;;;;;;;;;5045228;28;20419;-75
2023/10/10 12:32:15;;;;;;;21.95;3.90;;;;;;;;;;5034298;28;20506;-75
2023/10/10 12:34:45;;;;;;;20.67;4.00;;;;;;;;;;5030755;28;20753;-75
2023/10/10 12:37:15;;;;;;;22.65;3.92;;;;;;;;;;5034703;28;20935;-75
2023/10/10 12:39:42;;;;;;;17.83;3.63;;;;;;;;;;5030945;28;20490;-75
2023/10/10 12:42:09;;;;;;;21.60;3.80;;;;;;;;;;5033760;28;20445;-75
2023/10/10 12:44:36;;;;;;;19.42;3.75;;;;;;;;;;5030085;28;20406;-75
2023/10/10 12:47:06;;;;;;;19.10;3.10;;;;;;;;;;5032321;28;20407;-75
2023/10/10 12:49:36;;;;;;;18.27;3.33;;;;;;;;;;5033422;28;20415;-76
2023/10/10 12:52:11;;;;;;;21.10;4.10;;;;;;;;;;5030944;28;20403;-75
2023/10/10 12:54:38;;;;;;;17.80;3.55;;;;;;;;;;5032417;28;20486;-74
2023/10/10 12:57:06;;;;;;;19.38;3.33;;;;;;;;;;5046717;28;20943;-75
2023/10/10 12:59:32;;;;;;;20.83;3.80;;;;;;;;;;5031577;28;20415;-75
2023/10/10 13:02:03;;;;;;;19.63;4.00;;;;;;;;;;5030271;28;20423;-75
2023/10/10 13:04:32;;;;;;;18.83;4.35;;;;;;;;;;5031716;28;20407;-76
2023/10/10 13:07:05;;;;;;;19.60;3.40;;;;;;;;;;5029914;28;20408;-75
2023/10/10 13:09:33;;;;;;;23.10;3.70;;;;;;;;;;5035019;28;20465;-75
2023/10/10 13:12:02;;;;;;;19.27;3.35;;;;;;;;;;5031305;28;20407;-75
2023/10/10 13:14:32;;;;;;;18.10;3.33;;;;;;;;;;5035397;28;20403;-77
2023/10/10 13:20:05;;;;;;;18.40;3.70;;;;;;;;;;5005221;28;20532;-76
2023/10/10 13:22:32;;;;;;;18.65;3.90;;;;;;;;;;5018808;28;20911;-76
2023/10/10 13:25:00;;;;;;;18.08;3.40;;;;;;;;;;5015415;28;20431;-75
2023/10/10 13:27:26;;;;;;;19.43;2.80;;;;;;;;;;5015500;28;20408;-75
2023/10/10 13:29:53;;;;;;;20.70;3.65;;;;;;;;;;5034376;28;20744;-77
2023/10/10 13:32:21;;;;;;;19.77;3.60;;;;;;;;;;5047297;28;20404;-75
2023/10/10 13:34:48;;;;;;;17.35;3.33;;;;;;;;;;5051748;28;20419;-74
2023/10/10 13:37:15;;;;;;;19.27;3.50;;;;;;;;;;5037086;28;20410;-74
2023/10/10 13:39:47;;;;;;;18.67;3.72;;;;;;;;;;5036821;28;20433;-75
2023/10/10 13:42:20;;;;;;;17.70;2.92;;;;;;;;;;5056712;28;20462;-76
2023/10/10 13:44:48;;;;;;;20.98;3.90;;;;;;;;;;5039810;28;20426;-75
2023/10/10 13:47:16;;;;;;;21.98;4.38;;;;;;;;;;5037969;28;21061;-76
2023/10/10 13:49:58;;;;;;;17.98;3.22;;;;;;;;;;5018777;28;20929;-74
2023/10/10 13:52:25;;;;;;;18.05;3.47;;;;;;;;;;5044672;28;20465;-75
2023/10/10 13:54:52;;;;;;;18.23;3.25;;;;;;;;;;5037169;28;20419;-75
2023/10/10 13:57:25;;;;;;;18.85;3.78;;;;;;;;;;5038204;28;20427;-78
2023/10/10 13:59:52;;;;;;;27.00;3.97;;;;;;;;;;5021074;28;20412;-76
2023/10/10 14:02:25;;;;;;;17.48;3.67;;;;;;;;;;5019738;28;20508;-77
2023/10/10 14:04:52;;;;;;;18.90;2.97;;;;;;;;;;5028018;28;20483;-74
2023/10/10 14:07:19;;;;;;;19.30;4.37;;;;;;;;;;5039843;28;20422;-77
2023/10/10 14:09:49;;;;;;;19.42;3.50;;;;;;;;;;5038124;28;20407;-76
2023/10/10 14:12:31;;;;;;;18.57;3.30;;;;;;;;;;5034551;28;20406;-75
2023/10/10 14:14:59;;;;;;;21.13;3.33;;;;;;;;;;5033632;28;20418;-74
2023/10/10 14:17:26;;;;;;;20.80;4.30;;;;;;;;;;5033693;28;20883;-74
2023/10/10 14:19:52;;;;;;;17.75;3.20;;;;;;;;;;5034098;28;20449;-74
2023/10/10 14:22:22;;;;;;;16.90;3.17;;;;;;;;;;5031412;28;20742;-73
2023/10/10 14:24:52;;;;;;;22.52;3.70;;;;;;;;;;5031150;28;20490;-74
2023/10/10 14:27:20;;;;;;;18.42;4.20;;;;;;;;;;5033694;28;20446;-74
2023/10/10 14:29:50;;;;;;;20.33;3.90;;;;;;;;;;5032345;28;20447;-74
2023/10/10 14:32:16;;;;;;;18.15;3.70;;;;;;;;;;5039084;28;20902;-76
2023/10/10 14:35:00;;;;;;;20.77;3.05;;;;;;;;;;5027031;28;20896;-74
2023/10/10 14:37:27;;;;;;;21.73;3.45;;;;;;;;;;5048257;28;20426;-73
2023/10/10 14:40:15;;;;;;;16.55;3.03;;;;;;;;;;5028986;28;20744;-75
2023/10/10 14:42:42;;;;;;;19.42;3.63;;;;;;;;;;5032279;28;20423;-75
2023/10/10 14:45:12;;;;;;;19.83;4.05;;;;;;;;;;5024041;28;20510;-76
2023/10/10 14:47:43;;;;;;;19.25;4.00;;;;;;;;;;5043622;28;20424;-77
2023/10/10 14:50:12;;;;;;;19.20;2.90;;;;;;;;;;5049581;28;20482;-77
2023/10/10 14:52:47;;;;;;;19.48;3.72;;;;;;;;;;5047366;28;20409;-77
2023/10/10 14:55:27;;;;;;;23.13;3.67;;;;;;;;;;5049967;28;20407;-77
2023/10/10 14:57:55;;;;;;;18.20;3.63;;;;;;;;;;5049533;28;20434;-77
2023/10/10 15:00:24;;;;;;;19.45;3.53;;;;;;;;;;5052773;28;20449;-76
2023/10/10 15:02:55;;;;;;;19.48;3.33;;;;;;;;;;5050245;28;20519;-76
2023/10/10 15:05:26;;;;;;;19.17;3.05;;;;;;;;;;5049264;28;20414;-77
2023/10/10 15:07:53;;;;;;;16.73;3.42;;;;;;;;;;5056656;28;20888;-76
2023/10/10 15:10:23;;;;;;;18.75;3.65;;;;;;;;;;5048534;28;20451;-77
2023/10/10 15:12:50;;;;;;;19.10;3.97;;;;;;;;;;5048807;28;20484;-74
2023/10/10 15:15:16;;;;;;;19.43;4.17;;;;;;;;;;5037305;28;20451;-75
2023/10/10 15:17:45;;;;;;;16.67;3.10;;;;;;;;;;5042414;28;20433;-75
2023/10/10 15:20:12;;;;;;;18.42;3.13;;;;;;;;;;5048380;28;20443;-76
2023/10/10 15:22:41;;;;;;;19.67;4.07;;;;;;;;;;5036335;28;20535;-74
2023/10/10 15:25:10;;;;;;;20.30;4.10;;;;;;;;;;5033075;28;20946;-75
2023/10/10 15:27:40;;;;;;;17.90;3.50;;;;;;;;;;5033174;28;20415;-76
2023/10/10 15:30:08;;;;;;;19.42;3.97;;;;;;;;;;5031620;28;20442;-77
2023/10/10 15:32:44;;;;;;;23.20;3.75;;;;;;;;;;5032346;28;20415;-76
2023/10/10 15:35:14;;;;;;;21.35;4.10;;;;;;;;;;5033613;28;20510;-75
2023/10/10 15:37:43;;;;;;;19.30;4.30;;;;;;;;;;5030795;28;20442;-73
2023/10/10 15:40:20;;;;;;;19.88;3.50;;;;;;;;;;5025417;28;20427;-72
2023/10/10 15:42:48;;;;;;;19.63;3.42;;;;;;;;;;5032355;28;20463;-73
2023/10/10 15:45:20;;;;;;;21.70;4.07;;;;;;;;;;5039514;28;20787;-76
2023/10/10 15:47:48;;;;;;;18.77;3.58;;;;;;;;;;5036524;28;20419;-74
2023/10/10 15:50:17;;;;;;;21.77;4.20;;;;;;;;;;5029561;28;20428;-76
2023/10/10 15:52:48;;;;;;;21.38;3.70;;;;;;;;;;5030706;28;20403;-76
2023/10/10 15:55:15;;;;;;;17.42;3.50;;;;;;;;;;5016310;28;20413;-76
2023/10/10 15:57:42;;;;;;;18.50;3.67;;;;;;;;;;5030860;28;20406;-75
2023/10/10 16:00:15;;;;;;;18.20;3.33;;;;;;;;;;5034610;28;20965;-76
2023/10/10 16:02:41;;;;;;;18.70;3.88;;;;;;;;;;5029732;28;20431;-75
2023/10/10 16:05:08;;;;;;;19.85;3.72;;;;;;;;;;5032583;28;20479;-75
2023/10/10 16:07:36;;;;;;;21.38;4.00;;;;;;;;;;5029654;28;20459;-74
2023/10/10 16:10:06;;;;;;;20.65;4.00;;;;;;;;;;5037200;28;20403;-74
2023/10/10 16:12:34;;;;;;;19.30;3.17;;;;;;;;;;5030362;28;20500;-75
2023/10/10 16:15:00;;;;;;;21.23;4.88;;;;;;;;;;5034950;28;20457;-74
2023/10/10 16:17:28;;;;;;;20.60;4.75;;;;;;;;;;5031543;28;20443;-75
2023/10/10 16:19:55;;;;;;;20.00;3.78;;;;;;;;;;5029259;28;21015;-76
2023/10/10 16:22:22;;;;;;;20.83;3.67;;;;;;;;;;5029201;28;20430;-75
2023/10/10 16:24:52;;;;;;;22.90;3.50;;;;;;;;;;5035885;28;20411;-75
2023/10/10 16:27:21;;;;;;;18.10;3.70;;;;;;;;;;5030235;28;20459;-75
2023/10/10 16:29:48;;;;;;;19.90;3.97;;;;;;;;;;5029861;28;20435;-75
2023/10/10 16:32:17;;;;;;;19.30;3.42;;;;;;;;;;5027834;28;20645;-76
2023/10/10 16:34:45;;;;;;;18.38;3.70;;;;;;;;;;5030788;28;20585;-75
2023/10/10 16:37:13;;;;;;;22.77;4.87;;;;;;;;;;5030962;28;20757;-76
2023/10/10 16:39:44;;;;;;;23.10;3.75;;;;;;;;;;5027892;28;20498;-74
2023/10/10 16:42:14;;;;;;;23.87;4.33;;;;;;;;;;5029672;28;20419;-75
2023/10/10 16:44:40;;;;;;;21.67;3.97;;;;;;;;;;5031210;28;20415;-75
2023/10/10 16:47:08;;;;;;;25.45;5.03;;;;;;;;;;5038439;28;20419;-75
2023/10/10 16:49:37;;;;;;;23.23;4.28;;;;;;;;;;5034389;28;20417;-75
2023/10/10 16:52:05;;;;;;;24.38;3.90;;;;;;;;;;5026646;28;20468;-74
2023/10/10 16:54:35;;;;;;;24.65;4.43;;;;;;;;;;5030684;28;20876;-75
2023/10/10 16:57:01;;;;;;;25.33;4.00;;;;;;;;;;5030030;28;20977;-75
2023/10/10 16:59:30;;;;;;;27.35;4.50;;;;;;;;;;5031170;28;20729;-75
2023/10/10 17:01:57;;;;;;;22.52;4.00;;;;;;;;;;5022145;28;20431;-75
2023/10/10 17:04:24;;;;;;;22.75;4.68;;;;;;;;;;5030200;28;20407;-75
2023/10/10 17:06:51;;;;;;;19.53;3.60;;;;;;;;;;5020230;28;20760;-75
2023/10/10 17:09:17;;;;;;;19.85;4.10;;;;;;;;;;5030341;28;20425;-75
2023/10/10 17:11:50;;;;;;;19.35;4.35;;;;;;;;;;5029372;28;20442;-74
2023/10/10 17:14:18;;;;;;;19.90;4.70;;;;;;;;;;5026397;28;20529;-75
2023/10/10 17:16:46;;;;;;;20.30;4.40;;;;;;;;;;5029353;28;20523;-76